createdAt,value
2019-04-27T00:02:33.429Z,7.17
2019-04-27T00:05:33.310Z,7.53
2019-04-27T00:08:11.528Z,8.00
2019-04-27T00:11:05.045Z,7.70
2019-04-27T00:13:36.281Z,7.33
2019-04-27T00:16:16.047Z,7.27
2019-04-27T00:19:15.914Z,7.83
2019-04-27T00:21:52.831Z,7.43
2019-04-27T00:24:23.477Z,7.10
2019-04-27T00:26:54.067Z,7.80
2019-04-27T00:29:23.610Z,7.10
2019-04-27T00:31:55.672Z,7.53
2019-04-27T00:34:24.509Z,6.77
2019-04-27T00:37:15.547Z,7.50
2019-04-27T00:39:50.585Z,7.37
2019-04-27T00:42:19.607Z,7.60
2019-04-27T00:44:48.619Z,7.97
2019-04-27T00:47:17.605Z,6.97
2019-04-27T00:49:46.603Z,7.63
2019-04-27T00:52:15.556Z,7.10
2019-04-27T00:54:44.534Z,7.70
2019-04-27T00:57:44.467Z,7.50
2019-04-27T01:00:31.014Z,7.40
2019-04-27T01:03:03.820Z,7.57
2019-04-27T01:05:33.763Z,7.93
2019-04-27T01:08:03.799Z,8.33
2019-04-27T01:10:33.491Z,8.43
2019-04-27T01:13:03.367Z,7.97
2019-04-27T01:15:33.945Z,8.17
2019-04-27T01:18:12.316Z,8.50
2019-04-27T01:20:33.905Z,8.17
2019-04-27T01:23:02.901Z,8.00
2019-04-27T01:25:52.455Z,8.23
2019-04-27T01:28:29.130Z,7.43
2019-04-27T01:31:02.478Z,7.83
2019-04-27T01:33:31.480Z,8.27
2019-04-27T01:36:00.478Z,8.23
2019-04-27T01:38:29.435Z,7.53
2019-04-27T01:41:00.530Z,7.47
2019-04-27T01:43:30.168Z,8.23
2019-04-27T01:46:01.010Z,7.90
2019-04-27T01:48:30.614Z,7.67
2019-04-27T01:50:59.684Z,7.93
2019-04-27T01:53:30.300Z,7.93
2019-04-27T01:55:59.431Z,7.83
2019-04-27T01:58:29.285Z,8.70
2019-04-27T02:01:18.732Z,7.87
2019-04-27T02:04:04.394Z,8.53
2019-04-27T02:06:33.356Z,7.90
2019-04-27T02:09:02.302Z,8.27
2019-04-27T02:11:31.301Z,7.57
2019-04-27T02:14:00.259Z,8.43
2019-04-27T02:16:30.648Z,8.83
2019-04-27T02:18:59.703Z,8.27
2019-04-27T02:21:29.477Z,8.67
2019-04-27T02:23:59.844Z,8.80
2019-04-27T02:26:29.872Z,9.03
2019-04-27T02:29:18.885Z,8.63
2019-04-27T02:32:02.953Z,8.07
2019-04-27T02:34:34.009Z,8.77
2019-04-27T02:37:03.061Z,8.77
2019-04-27T02:39:32.099Z,8.17
2019-04-27T02:42:01.047Z,8.80
2019-04-27T02:44:37.088Z,9.03
2019-04-27T02:47:06.087Z,9.17
2019-04-27T02:49:35.044Z,9.30
2019-04-27T02:52:20.479Z,10.20
2019-04-27T02:54:50.568Z,10.40
2019-04-27T02:57:20.094Z,10.87
2019-04-27T02:59:50.299Z,10.73
2019-04-27T03:02:34.754Z,10.20
2019-04-27T03:05:03.968Z,9.53
2019-04-27T03:07:32.966Z,9.40
2019-04-27T03:10:02.709Z,10.10
2019-04-27T03:12:39.863Z,9.43
2019-04-27T03:15:30.556Z,9.60
2019-04-27T03:18:32.750Z,10.27
2019-04-27T03:21:06.976Z,10.63
2019-04-27T03:23:35.975Z,10.30
2019-04-27T03:26:42.345Z,10.33
2019-04-27T03:29:11.849Z,9.90
2019-04-27T03:31:42.658Z,9.97
2019-04-27T03:34:16.301Z,9.60
2019-04-27T03:36:42.093Z,9.40
2019-04-27T03:39:11.203Z,9.90
2019-04-27T03:41:41.107Z,9.67
2019-04-27T03:44:10.293Z,9.07
2019-04-27T03:46:39.825Z,9.70
2019-04-27T03:49:09.811Z,9.37
2019-04-27T03:51:45.775Z,9.83
2019-04-27T03:54:34.660Z,9.10
2019-04-27T03:57:29.753Z,9.87
2019-04-27T04:00:00.467Z,9.00
2019-04-27T04:02:30.201Z,9.07
2019-04-27T04:04:59.889Z,8.67
2019-04-27T04:07:29.962Z,8.10
2019-04-27T04:10:00.277Z,9.07
2019-04-27T04:12:35.079Z,8.30
2019-04-27T04:15:04.847Z,8.80
2019-04-27T04:17:33.803Z,8.57
2019-04-27T04:20:02.996Z,9.00
2019-04-27T04:22:32.172Z,9.07
2019-04-27T04:25:01.147Z,8.23
2019-04-27T04:27:30.164Z,8.03
2019-04-27T04:29:59.555Z,9.47
2019-04-27T04:32:29.760Z,8.53
2019-04-27T04:35:13.419Z,9.27
2019-04-27T04:37:42.410Z,9.10
2019-04-27T04:40:11.396Z,8.97
2019-04-27T04:42:45.039Z,8.63
2019-04-27T04:45:25.813Z,8.67
2019-04-27T04:48:09.820Z,8.23
2019-04-27T04:50:39.821Z,8.83
2019-04-27T04:53:12.241Z,7.87
2019-04-27T04:55:39.470Z,7.93
2019-04-27T04:58:09.322Z,7.90
2019-04-27T05:00:40.085Z,7.97
2019-04-27T05:03:09.503Z,7.40
2019-04-27T05:05:41.058Z,7.53
2019-04-27T05:08:09.217Z,7.53
2019-04-27T05:10:39.479Z,6.53
2019-04-27T05:13:09.346Z,6.90
2019-04-27T05:15:39.448Z,7.47
2019-04-27T05:18:09.075Z,7.20
2019-04-27T05:20:48.569Z,6.63
2019-04-27T05:23:18.654Z,7.10
2019-04-27T05:25:49.256Z,6.67
2019-04-27T05:28:18.810Z,6.17
2019-04-27T05:30:48.907Z,6.30
2019-04-27T05:33:18.746Z,6.37
2019-04-27T05:35:49.176Z,6.07
2019-04-27T05:38:19.303Z,7.03
2019-04-27T05:40:49.900Z,6.87
2019-04-27T05:43:20.831Z,7.20
2019-04-27T05:45:57.705Z,6.43
2019-04-27T05:48:30.729Z,7.47
2019-04-27T05:51:01.844Z,7.03
2019-04-27T05:53:30.351Z,6.73
2019-04-27T05:55:59.570Z,7.10
2019-04-27T05:58:29.000Z,6.73
2019-04-27T06:00:59.467Z,6.70
2019-04-27T06:03:29.627Z,7.10
2019-04-27T06:06:01.398Z,6.80
2019-04-27T06:08:29.579Z,6.97
2019-04-27T06:10:59.211Z,6.90
2019-04-27T06:13:30.791Z,7.10
2019-04-27T06:15:59.346Z,7.27
2019-04-27T06:18:29.467Z,7.03
2019-04-27T06:20:59.826Z,7.30
2019-04-27T06:23:29.083Z,7.40
2019-04-27T06:26:01.451Z,7.43
2019-04-27T06:28:28.991Z,7.20
2019-04-27T06:30:59.488Z,7.43
2019-04-27T06:33:34.137Z,7.30
2019-04-27T06:35:59.438Z,6.77
2019-04-27T06:38:29.651Z,7.50
2019-04-27T06:40:59.070Z,7.37
2019-04-27T06:43:29.457Z,6.83
2019-04-27T06:45:58.760Z,6.97
2019-04-27T06:48:29.516Z,7.63
2019-04-27T06:51:05.034Z,7.30
2019-04-27T06:53:29.193Z,7.17
2019-04-27T06:55:58.641Z,7.47
2019-04-27T06:58:29.260Z,6.90
2019-04-27T07:00:59.548Z,6.50
2019-04-27T07:03:29.079Z,6.73
2019-04-27T07:05:58.865Z,7.13
2019-04-27T07:08:28.721Z,7.83
2019-04-27T07:10:58.963Z,7.30
2019-04-27T07:13:29.119Z,7.07
2019-04-27T07:15:59.709Z,8.03
2019-04-27T07:18:28.767Z,7.07
2019-04-27T07:20:58.652Z,6.83
2019-04-27T07:23:29.229Z,6.70
2019-04-27T07:25:59.874Z,6.87
2019-04-27T07:28:29.013Z,7.43
2019-04-27T07:30:58.644Z,7.57
2019-04-27T07:33:29.491Z,6.90
2019-04-27T07:35:59.055Z,6.87
2019-04-27T07:38:29.378Z,6.50
2019-04-27T07:40:58.725Z,6.70
2019-04-27T07:43:39.296Z,7.10
2019-04-27T07:46:08.878Z,6.60
2019-04-27T07:48:39.504Z,6.90
2019-04-27T07:51:09.001Z,6.77
2019-04-27T07:53:38.990Z,7.30
2019-04-27T07:56:10.577Z,6.53
2019-04-27T07:58:39.582Z,6.90
2019-04-27T08:01:09.267Z,6.40
2019-04-27T08:03:39.052Z,6.70
2019-04-27T08:06:08.482Z,6.00
2019-04-27T08:08:39.662Z,7.17
2019-04-27T08:11:09.153Z,6.33
2019-04-27T08:13:39.482Z,6.33
2019-04-27T08:16:08.714Z,5.73
2019-04-27T08:18:39.497Z,6.47
2019-04-27T08:21:08.973Z,6.07
2019-04-27T08:23:39.431Z,6.57
2019-04-27T08:26:14.078Z,6.70
2019-04-27T08:28:58.599Z,6.10
2019-04-27T08:31:35.954Z,6.33
2019-04-27T08:34:06.539Z,6.60
2019-04-27T08:36:35.497Z,6.70
2019-04-27T08:39:04.934Z,6.77
2019-04-27T08:41:33.919Z,6.53
2019-04-27T08:44:02.876Z,7.13
2019-04-27T08:46:31.867Z,6.60
2019-04-27T08:49:00.864Z,6.57
2019-04-27T08:51:29.864Z,5.90
2019-04-27T08:53:59.171Z,6.40
2019-04-27T08:56:28.197Z,6.50
2019-04-27T08:58:57.157Z,6.20
2019-04-27T09:01:26.174Z,6.00
2019-04-27T09:03:55.175Z,6.47
2019-04-27T09:06:24.142Z,6.23
2019-04-27T09:09:09.497Z,6.10
2019-04-27T09:11:49.397Z,6.50
2019-04-27T09:14:23.044Z,6.03
2019-04-27T09:17:20.083Z,5.80
2019-04-27T09:20:05.183Z,5.93
2019-04-27T09:22:34.144Z,6.07
2019-04-27T09:25:03.251Z,6.37
2019-04-27T09:27:32.311Z,5.77
2019-04-27T09:30:01.299Z,6.30
2019-04-27T09:32:30.286Z,6.60
2019-04-27T09:34:59.282Z,6.07
2019-04-27T09:37:28.236Z,6.57
2019-04-27T09:39:57.244Z,6.50
2019-04-27T09:42:26.845Z,6.77
2019-04-27T09:44:55.904Z,6.30
2019-04-27T09:47:26.557Z,6.20
2019-04-27T09:49:56.531Z,5.80
2019-04-27T09:52:26.907Z,6.73
2019-04-27T09:54:56.195Z,6.90
2019-04-27T09:57:25.971Z,6.87
2019-04-27T09:59:56.478Z,6.83
2019-04-27T10:02:26.970Z,6.53
2019-04-27T10:04:56.584Z,6.63
2019-04-27T10:07:26.804Z,6.60
2019-04-27T10:09:56.091Z,6.57
2019-04-27T10:12:26.096Z,6.30
2019-04-27T10:14:55.979Z,6.53
2019-04-27T10:17:25.058Z,6.43
2019-04-27T10:19:54.016Z,6.37
2019-04-27T10:22:23.068Z,6.33
2019-04-27T10:24:52.086Z,7.40
2019-04-27T10:27:21.059Z,6.63
2019-04-27T10:29:50.010Z,6.53
2019-04-27T10:32:18.995Z,6.37
2019-04-27T10:34:48.059Z,6.70
2019-04-27T10:37:17.006Z,7.00
2019-04-27T10:39:46.122Z,6.60
2019-04-27T10:42:15.118Z,6.23
2019-04-27T10:44:45.977Z,7.00
2019-04-27T10:47:15.849Z,6.50
2019-04-27T10:49:46.623Z,6.53
2019-04-27T10:52:15.620Z,7.23
2019-04-27T10:54:44.574Z,6.87
2019-04-27T10:57:13.567Z,6.10
2019-04-27T10:59:42.528Z,6.80
2019-04-27T11:02:11.474Z,6.43
2019-04-27T11:05:04.479Z,6.30
2019-04-27T11:07:36.341Z,6.10
2019-04-27T11:10:07.586Z,6.47
2019-04-27T11:12:36.797Z,6.53
2019-04-27T11:15:07.746Z,6.50
2019-04-27T11:17:37.124Z,6.20
2019-04-27T11:20:06.311Z,6.60
2019-04-27T11:22:36.329Z,6.43
2019-04-27T11:25:06.241Z,6.23
2019-04-27T11:27:35.338Z,6.80
2019-04-27T11:30:06.603Z,6.70
2019-04-27T11:32:35.504Z,6.63
2019-04-27T11:35:25.655Z,6.57
2019-04-27T11:37:55.730Z,6.23
2019-04-27T11:40:25.031Z,7.07
2019-04-27T11:42:57.031Z,6.90
2019-04-27T11:45:26.737Z,6.37
2019-04-27T11:47:56.958Z,6.83
2019-04-27T11:50:26.123Z,6.83
2019-04-27T11:52:56.626Z,7.87
2019-04-27T11:55:27.354Z,6.50
2019-04-27T11:57:56.478Z,7.10
2019-04-27T12:00:27.531Z,6.50
2019-04-27T12:02:56.786Z,6.83
2019-04-27T12:05:26.164Z,6.83
2019-04-27T12:07:56.051Z,7.23
2019-04-27T12:10:26.278Z,7.20
2019-04-27T12:12:56.271Z,7.93
2019-04-27T12:15:26.250Z,7.00
2019-04-27T12:17:56.198Z,7.13
2019-04-27T12:20:25.837Z,7.10
2019-04-27T12:22:55.063Z,7.13
2019-04-27T12:25:24.116Z,7.23
2019-04-27T12:28:20.934Z,7.83
2019-04-27T12:31:09.178Z,7.60
2019-04-27T12:33:38.219Z,6.70
2019-04-27T12:36:07.351Z,7.00
2019-04-27T12:38:36.636Z,7.20
2019-04-27T12:41:06.769Z,7.97
2019-04-27T12:43:37.399Z,7.53
2019-04-27T12:46:06.656Z,7.53
2019-04-27T12:48:37.400Z,7.20
2019-04-27T12:51:06.716Z,7.87
2019-04-27T12:53:50.746Z,8.13
2019-04-27T12:56:36.988Z,7.57
2019-04-27T12:59:19.938Z,7.23
2019-04-27T13:01:48.944Z,7.70
2019-04-27T13:04:17.970Z,7.87
2019-04-27T13:06:47.133Z,7.47
2019-04-27T13:09:17.313Z,7.80
2019-04-27T13:11:46.379Z,7.43
2019-04-27T13:14:16.337Z,7.80
2019-04-27T13:16:45.730Z,7.73
2019-04-27T13:19:16.945Z,7.87
2019-04-27T13:21:46.944Z,7.53
2019-04-27T13:24:16.051Z,7.63
2019-04-27T13:26:45.643Z,8.00
2019-04-27T13:29:16.519Z,7.93
2019-04-27T13:31:45.375Z,7.87
2019-04-27T13:34:15.880Z,7.63
2019-04-27T13:36:45.694Z,8.10
2019-04-27T13:39:15.789Z,7.53
2019-04-27T13:41:46.291Z,8.00
2019-04-27T13:44:16.049Z,7.60
2019-04-27T13:47:17.154Z,7.80
2019-04-27T13:49:56.875Z,8.23
2019-04-27T13:52:29.934Z,8.10
2019-04-27T13:54:58.519Z,7.87
2019-04-27T13:57:27.510Z,8.27
2019-04-27T13:59:56.463Z,7.77
2019-04-27T14:02:28.884Z,8.80
2019-04-27T14:04:56.110Z,8.20
2019-04-27T14:07:26.580Z,8.20
2019-04-27T14:09:55.675Z,7.77
2019-04-27T14:12:24.678Z,8.63
2019-04-27T14:14:53.625Z,8.60
2019-04-27T14:17:22.615Z,8.60
2019-04-27T14:19:51.652Z,9.10
2019-04-27T14:22:20.612Z,8.90
2019-04-27T14:24:49.680Z,8.77
2019-04-27T14:27:19.697Z,9.30
2019-04-27T14:29:49.024Z,9.50
2019-04-27T14:32:18.756Z,8.87
2019-04-27T14:34:48.518Z,9.83
2019-04-27T14:37:18.625Z,9.83
2019-04-27T14:39:47.790Z,9.23
2019-04-27T14:42:18.983Z,9.93
2019-04-27T14:44:48.950Z,9.40
2019-04-27T14:47:18.775Z,9.67
2019-04-27T14:49:49.116Z,10.47
2019-04-27T14:52:18.813Z,10.03
2019-04-27T14:54:50.553Z,10.17
2019-04-27T14:57:20.237Z,9.93
2019-04-27T14:59:49.417Z,9.67
2019-04-27T15:02:18.622Z,9.57
2019-04-27T15:04:47.662Z,9.37
2019-04-27T15:07:16.701Z,9.60
2019-04-27T15:09:49.567Z,10.93
2019-04-27T15:12:16.410Z,10.47
2019-04-27T15:14:45.378Z,10.57
2019-04-27T15:17:17.705Z,12.50
2019-04-27T15:19:52.723Z,11.03
2019-04-27T15:22:25.251Z,11.60
2019-04-27T15:25:07.691Z,12.40
2019-04-27T15:27:30.802Z,11.83
2019-04-27T15:30:05.791Z,11.87
2019-04-27T15:33:05.346Z,15.07
2019-04-27T15:35:43.867Z,13.73
2019-04-27T15:38:14.973Z,16.23
2019-04-27T15:41:01.326Z,15.00
2019-04-27T15:43:32.719Z,13.87
2019-04-27T15:46:01.833Z,13.90
2019-04-27T15:48:33.971Z,14.30
2019-04-27T15:51:05.020Z,14.13
2019-04-27T15:53:32.004Z,12.57
2019-04-27T15:56:02.040Z,12.33
2019-04-27T15:58:31.092Z,11.93
2019-04-27T16:01:01.038Z,12.13
2019-04-27T16:03:31.312Z,11.40
2019-04-27T16:06:03.167Z,12.40
2019-04-27T16:08:31.243Z,12.00
2019-04-27T16:11:00.308Z,12.20
2019-04-27T16:13:32.893Z,12.23
2019-04-27T16:15:59.888Z,13.30
2019-04-27T16:18:31.706Z,14.10
2019-04-27T16:21:02.766Z,14.60
2019-04-27T16:23:33.558Z,14.43
2019-04-27T16:26:04.979Z,13.53
2019-04-27T16:28:31.413Z,13.57
2019-04-27T16:31:00.370Z,13.50
2019-04-27T16:33:29.372Z,13.67
2019-04-27T16:36:06.427Z,14.03
2019-04-27T16:38:53.943Z,14.20
2019-04-27T16:41:22.995Z,13.93
2019-04-27T16:43:51.982Z,11.63
2019-04-27T16:46:21.367Z,10.13
2019-04-27T16:48:50.571Z,11.00
2019-04-27T16:51:19.597Z,11.77
2019-04-27T16:53:48.671Z,10.83
2019-04-27T16:56:20.380Z,11.20
2019-04-27T16:58:56.301Z,7.23
2019-04-27T17:01:24.498Z,5.60
2019-04-27T17:03:53.923Z,4.63
2019-04-27T17:06:23.099Z,5.03
2019-04-27T17:08:52.040Z,4.60
2019-04-27T17:11:21.195Z,4.13
2019-04-27T17:13:55.286Z,3.87
2019-04-27T17:16:43.268Z,3.43
2019-04-27T17:19:35.781Z,4.07
2019-04-27T17:22:03.923Z,4.30
2019-04-27T17:24:42.246Z,4.60
2019-04-27T17:27:11.007Z,4.67
2019-04-27T17:29:40.082Z,4.47
2019-04-27T17:32:11.113Z,5.33
2019-04-27T17:34:40.084Z,4.57
2019-04-27T17:37:09.042Z,4.70
2019-04-27T17:39:38.746Z,4.90
2019-04-27T17:42:08.419Z,4.80
2019-04-27T17:44:39.336Z,5.27
2019-04-27T17:47:08.834Z,5.70
2019-04-27T17:49:39.008Z,5.30
2019-04-27T17:52:08.766Z,5.70
2019-04-27T17:54:40.855Z,6.23
2019-04-27T17:57:11.966Z,5.23
2019-04-27T17:59:39.118Z,5.03
2019-04-27T18:02:08.922Z,5.40
2019-04-27T18:04:40.952Z,5.50
2019-04-27T18:07:09.016Z,4.83
2019-04-27T18:09:43.293Z,5.13
2019-04-27T18:12:14.883Z,5.17
2019-04-27T18:14:41.252Z,5.13
2019-04-27T18:17:12.110Z,4.67
2019-04-27T18:19:47.743Z,3.93
2019-04-27T18:22:18.157Z,5.80
2019-04-27T18:25:06.286Z,4.47
2019-04-27T18:27:49.863Z,4.33
2019-04-27T18:30:28.227Z,5.80
2019-04-27T18:32:59.193Z,4.53
2019-04-27T18:35:29.587Z,4.43
2019-04-27T18:38:01.623Z,4.73
2019-04-27T18:40:32.044Z,5.30
2019-04-27T18:43:01.958Z,5.20
2019-04-27T18:45:30.510Z,5.10
2019-04-27T18:48:06.557Z,5.43
2019-04-27T18:51:02.671Z,5.50
2019-04-27T18:53:31.631Z,5.23
2019-04-27T18:56:05.089Z,5.80
2019-04-27T18:58:31.266Z,10.27
2019-04-27T19:01:00.215Z,4.60
2019-04-27T19:03:31.514Z,5.10
2019-04-27T19:05:59.822Z,5.80
2019-04-27T19:08:28.814Z,5.60
2019-04-27T19:11:00.070Z,5.47
2019-04-27T19:13:28.374Z,5.30
2019-04-27T19:15:57.936Z,6.30
2019-04-27T19:18:27.899Z,7.00
2019-04-27T19:20:58.454Z,13.80
2019-04-27T19:23:27.914Z,8.33
2019-04-27T19:26:18.623Z,10.83
2019-04-27T19:29:22.795Z,6.87
2019-04-27T19:31:55.343Z,9.10
2019-04-27T19:34:24.382Z,10.93
2019-04-27T19:36:54.651Z,7.73
2019-04-27T19:39:23.626Z,11.93
2019-04-27T19:42:00.178Z,9.20
2019-04-27T19:44:23.239Z,11.70
2019-04-27T19:46:52.211Z,10.00
2019-04-27T19:49:21.227Z,13.03
2019-04-27T19:51:50.174Z,6.70
2019-04-27T19:54:19.274Z,6.20
2019-04-27T19:56:49.935Z,6.13
2019-04-27T19:59:23.691Z,5.80
2019-04-27T20:01:54.105Z,5.40
2019-04-27T20:04:30.685Z,5.63
2019-04-27T20:06:59.839Z,6.10
2019-04-27T20:09:49.961Z,8.37
2019-04-27T20:12:21.122Z,6.47
2019-04-27T20:14:55.925Z,5.63
2019-04-27T20:17:31.955Z,6.40
2019-04-27T20:20:01.301Z,4.73
2019-04-27T20:22:30.564Z,6.20
2019-04-27T20:25:01.513Z,10.17
2019-04-27T20:27:34.868Z,9.30
2019-04-27T20:30:03.030Z,7.93
2019-04-27T20:32:31.824Z,7.50
2019-04-27T20:35:01.599Z,6.97
2019-04-27T20:37:31.402Z,5.80
2019-04-27T20:40:01.630Z,5.90
2019-04-27T20:42:31.496Z,5.47
2019-04-27T20:45:01.901Z,4.57
2019-04-27T20:47:31.379Z,4.23
2019-04-27T20:50:00.422Z,4.37
2019-04-27T20:52:37.098Z,4.43
2019-04-27T20:55:06.099Z,3.90
2019-04-27T20:57:35.075Z,4.20
2019-04-27T21:00:04.536Z,3.77
2019-04-27T21:02:42.438Z,3.80
2019-04-27T21:05:23.480Z,3.93
2019-04-27T21:07:55.341Z,4.10
2019-04-27T21:10:24.295Z,4.07
2019-04-27T21:12:53.225Z,3.57
2019-04-27T21:15:22.243Z,4.07
2019-04-27T21:17:51.297Z,3.83
2019-04-27T21:20:21.932Z,4.37
2019-04-27T21:22:51.499Z,4.43
2019-04-27T21:25:21.550Z,3.83
2019-04-27T21:27:51.372Z,3.90
2019-04-27T21:30:21.312Z,3.80
2019-04-27T21:32:50.816Z,3.57
2019-04-27T21:35:21.128Z,3.70
2019-04-27T21:37:51.159Z,3.83
2019-04-27T21:40:21.662Z,3.70
2019-04-27T21:42:51.258Z,3.83
2019-04-27T21:45:21.727Z,3.93
2019-04-27T21:47:51.885Z,4.30
2019-04-27T21:50:23.289Z,4.10
2019-04-27T21:53:03.817Z,4.07
2019-04-27T21:55:32.899Z,4.40
2019-04-27T21:58:01.857Z,3.90
2019-04-27T22:00:51.242Z,4.07
2019-04-27T22:03:22.866Z,4.40
2019-04-27T22:05:51.868Z,5.10
2019-04-27T22:08:21.494Z,4.87
2019-04-27T22:10:50.599Z,5.03
2019-04-27T22:13:22.209Z,4.83
2019-04-27T22:15:50.115Z,4.40
2019-04-27T22:18:19.102Z,4.20
2019-04-27T22:20:48.107Z,4.23
2019-04-27T22:23:23.166Z,4.03
2019-04-27T22:25:54.593Z,4.90
2019-04-27T22:28:22.880Z,5.10
2019-04-27T22:30:51.876Z,4.67
2019-04-27T22:33:21.426Z,5.57
2019-04-27T22:35:51.764Z,6.70
2019-04-27T22:38:20.815Z,6.80
2019-04-27T22:40:56.495Z,6.80
2019-04-27T22:43:56.491Z,7.97
2019-04-27T22:46:25.890Z,8.23
2019-04-27T22:48:54.851Z,7.70
2019-04-27T22:51:23.830Z,9.00
2019-04-27T22:53:52.834Z,9.00
2019-04-27T22:56:22.412Z,8.93
2019-04-27T22:59:03.914Z,8.80
2019-04-27T23:01:57.618Z,9.03
2019-04-27T23:04:38.770Z,8.73
2019-04-27T23:07:07.856Z,8.63
2019-04-27T23:09:36.923Z,7.93
2019-04-27T23:12:06.239Z,7.57
2019-04-27T23:14:35.416Z,7.57
2019-04-27T23:17:26.275Z,7.47
2019-04-27T23:19:55.278Z,8.40
2019-04-27T23:22:24.196Z,9.13
2019-04-27T23:24:53.154Z,8.13
2019-04-27T23:27:22.054Z,8.17
2019-04-27T23:29:51.502Z,8.70
2019-04-27T23:32:31.633Z,8.97
2019-04-27T23:35:00.595Z,9.13
2019-04-27T23:37:29.547Z,10.07
2019-04-27T23:39:58.475Z,9.70
2019-04-27T23:42:27.432Z,11.03
2019-04-27T23:44:56.338Z,10.50
2019-04-27T23:47:25.307Z,10.20
2019-04-27T23:49:54.235Z,9.60
2019-04-27T23:52:42.109Z,8.30
2019-04-27T23:55:11.003Z,7.83
2019-04-27T23:57:39.971Z,6.70
